Карточка аэропорта UMKK

Внимание!
Информация на этой странице в стадии наполнения.
Если вы не увидели какой-то информации, или заметили неточность - пожалуйста сообщите нам!
Спасибо!
Команда RU-STAFF
Название аэропортаХраброво
Название аэропорта (англ.)Khrabrovo
Превышение43 ft. (13.1 m.)
Координаты54°53.4', 20°35.55'
Высота перехода4000ft
Эшелон переходаFL50 (QNH>=1013hPa); FL60 (QNH<1013hPa); FL50 (QNH<977hPa);
Коды ответчика6620-6637
Зона ОрВДКалининград РПИ (UMKK)
Данные METARUMKK 131500Z 25006MPS 9999 SCT014 BKN045 13/10 Q1018 R24/CLRD95 NOSIG RMK QFE763/1017
Проноз погоды (TAF)UMKK 131355Z 1315/1415 27005G12MPS 6000 BKN013 TEMPO 1315/1321 BKN009 BECMG 1321/1323 21004G09MPS FEW010 BKN016CB TEMPO 1402/1410 2100 -TSRA BKN010 BKN016CB BECMG 1403/1406 27008G15MPS BECMG 1406/1409 27010G22MPS
NOTAMshow/hide NOTAM
AWOS   TABLE

Информация о ВПП

ВПП Длина ВПП (м.) Покрытие Курс ВПП Частота ILS
243350Асфальтобетон240109.5
063350Асфальтобетон60110.3

Диспетчерские позиции

Позывной Наименование органа УВД Частота
UMKK_APPКалининград-Подход126.0
UMKK_TWRКалининград-Вышка127.2



Спутниковое изображение